Impacts TAF Board INFO
FOR SITUATIONAL AWARENESS. NOT TO BE USED FOR FLIGHT PLANNING PURPOSES.
IDs:

KIAH - Houston/Bush Intl, TX, US

Issued at 2328 UTC 26 Jun 2017
Updated at 0155 UTC 27 Jun 2017
Potential Impact None Slight Moderate High
Time0153Z 27/02Z 27/03Z 27/04Z 27/05Z 27/06Z 27/07Z 27/08Z 27/09Z 27/10Z 27/11Z 27/12Z 27/13Z 27/14Z>>
Type OBS PRVL PRVL PRVL PRVL PRVL PRVL PRVL PRVL PRVL PRVL PRVL PRVL PRVL
VIS 10 >6 >6 >6 >6 >6 >6 >6 >6 >6 >6 >6 >6 >6
CIG 190 250 250 250 250 250 250 250 250 250 250 250 250 250
Cover BKN BKN BKN BKN BKN BKN BKN BKN BKN BKN BKN BKN BKN BKN
FltCat VFR VFR VFR VFR VFR VFR VFR VFR VFR VFR VFR VFR VFR VFR
WX -- -- -- -- -- -- -- -- -- -- -- -- -- --
WDir 120 90 90 90 90 90 90 90 90 90 90 90 90 90
WSpd 6 5 5 5 5 5 5 5 5 5 5 5 5 5
WGst -- -- -- -- -- -- -- -- -- -- -- -- -- --

Raw TAF
KIAH 262328Z 2700/2806 10010KT P6SM VCSH SCT030 BKN250
  FM270100 09005KT P6SM SCT025 BKN250
  FM271500 06006KT P6SM SCT030 BKN250
  FM271800 09008KT P6SM VCTS SCT040CB BKN250
  FM272300 12008KT P6SM BKN250


Raw METAR
KIAH 270153Z 12006KT 10SM FEW035 SCT090 SCT170 BKN190 BKN250 26/22 A3000 RMK AO2 SLP158 T02560222 $
KIAH 270053Z 12009KT 10SM FEW025 SCT040 SCT100 SCT150 BKN250 27/22 A3000 RMK AO2 SLP160 T02720217 $
KIAH 262353Z 13011KT 10SM FEW025 SCT045 SCT095 BKN150 BKN250 29/23 A3000 RMK AO2 SLP160 CB DSNT N-NE W-NW 60000 T02890228 10322 20272 55003 $
KIAH 262253Z 09007KT 10SM FEW035 SCT120 SCT150 BKN250 29/23 A2999 RMK AO2 SLP154 CB DSNT N-NE S-SW T02940233 $

METAR Board
Radar Display
Forecast Discussion

FOR SITUATIONAL AWARENESS. NOT TO BE USED FOR FLIGHT PLANNING PURPOSES.

Page loaded:  01:55 UTC  |   06:55 PM Pacific  |   07:55 PM Mountain  |   08:55 PM Central  |   09:55 PM Eastern

 

ADVISORIES

FORECASTS

FORECASTS

OBSERVATIONS

USER TOOLS

ABOUT US